This is the latest recevied weather packets stored in our database for station/object Rana. If no packets are shown the sender has not sent any weather packets the latest 1 day(s).
| Time | Temp. | Humidity | Pressure | Rain* | Wind** | Luminosity | Snow |
|---|---|---|---|---|---|---|---|
| 1778017510 | 10° C | 88% | - | - | 4.92 m/s, 295° | - | - |
| 1778017210 | 10° C | 88% | - | - | 4.92 m/s, 296° | - | - |
| 1778016910 | 10° C | 88% | - | - | 7.15 m/s, 290° | - | - |
| 1778016610 | 10° C | 88% | - | - | 8.05 m/s, 286° | - | - |
| 1778016311 | 10° C | 88% | - | - | 7.15 m/s, 286° | - | - |
| 1778016011 | 10° C | 88% | - | - | 7.15 m/s, 285° | - | - |
| 1778015711 | 10° C | 88% | - | - | 8.05 m/s, 288° | - | - |
| 1778015410 | 10° C | 88% | - | - | 11.18 m/s, 280° | - | - |
| 1778015110 | 10° C | 88% | - | - | 9.83 m/s, 280° | - | - |
| 1778014810 | 10° C | 87% | - | - | 9.83 m/s, 275° | - | - |
| 1778014510 | 10° C | 87% | - | - | 9.83 m/s, 284° | - | - |
| 1778014209 | 10° C | 85% | - | - | 8.05 m/s, 279° | - | - |
| 1778013911 | 10° C | 86% | - | - | 5.81 m/s, 299° | - | - |
| 1778013610 | 10° C | 85% | - | - | 8.94 m/s, 268° | - | - |
| 1778013317 | 10° C | 85% | - | - | 8.05 m/s, 276° | - | - |
| 1778013011 | 10° C | 84% | - | - | 12.96 m/s, 280° | - | - |
| 1778012711 | 10° C | 83% | - | - | 15.2 m/s, 274° | - | - |
| 1778012420 | 10° C | 81% | - | - | 17.88 m/s, 273° | - | - |
| 1778012110 | 11.11° C | 79% | - | - | 17.88 m/s, 278° | - | - |
| 1778011810 | 13.89° C | 73% | - | - | 9.83 m/s, 277° | - | - |
| 1778011512 | 15° C | 70% | - | - | 1.79 m/s, 325° | - | - |
| 1778011211 | 15° C | 70% | - | - | 3.13 m/s, 17° | - | - |
| 1778010909 | 15° C | 70% | - | - | 4.92 m/s, 42° | - | - |
| 1778010611 | 15° C | 70% | - | - | 4.92 m/s, 53° | - | - |
| 1778010311 | 15° C | 70% | - | - | 4.92 m/s, 56° | - | - |
* Rain since midnight (hover to see other rain measurements)
** Current wind speed in m/s (hover to see current wind gust speed)